createdAt,value
2022-09-28T00:00:54.696Z,94114.81
2022-09-28T00:03:21.884Z,94110.53
2022-09-28T00:05:49.118Z,94101.50
2022-09-28T00:08:16.248Z,94093.38
2022-09-28T00:10:43.430Z,94091.75
2022-09-28T00:13:10.561Z,94086.03
2022-09-28T00:15:37.712Z,94088.66
2022-09-28T00:18:04.899Z,94080.75
2022-09-28T00:20:32.015Z,94087.91
2022-09-28T00:22:59.170Z,94082.44
2022-09-28T00:25:26.320Z,94079.25
2022-09-28T00:27:53.458Z,94088.44
2022-09-28T00:30:20.773Z,94089.19
2022-09-28T00:32:47.989Z,94094.88
2022-09-28T00:35:15.200Z,94094.66
2022-09-28T00:37:42.344Z,94101.41
2022-09-28T00:40:09.680Z,94097.34
2022-09-28T00:42:36.793Z,94092.81
2022-09-28T00:45:04.310Z,94078.06
2022-09-28T00:47:49.457Z,94074.91
2022-09-28T00:50:25.764Z,94075.97
2022-09-28T00:53:04.232Z,94080.22
2022-09-28T00:55:43.139Z,94083.34
2022-09-28T00:58:14.829Z,94080.09
2022-09-28T01:00:42.288Z,94078.69
2022-09-28T01:03:10.185Z,94086.06
2022-09-28T01:05:39.584Z,94088.72
2022-09-28T01:08:08.677Z,94088.09
2022-09-28T01:10:36.108Z,94086.91
2022-09-28T01:13:03.576Z,94079.91
2022-09-28T01:15:36.300Z,94076.03
2022-09-28T01:18:25.364Z,94078.13
2022-09-28T01:21:05.424Z,94073.38
2022-09-28T01:23:56.681Z,94087.41
2022-09-28T01:26:36.800Z,94081.13
2022-09-28T01:29:18.969Z,94084.38
2022-09-28T01:31:52.841Z,94083.94
2022-09-28T01:34:39.083Z,94080.38
2022-09-28T01:37:09.842Z,94075.03
2022-09-28T01:39:42.625Z,94074.06
2022-09-28T01:42:19.872Z,94063.91
2022-09-28T01:44:50.531Z,94060.19
2022-09-28T01:47:21.673Z,94047.34
2022-09-28T01:50:18.240Z,94049.03
2022-09-28T01:52:56.650Z,94059.72
2022-09-28T01:55:33.449Z,94059.59
2022-09-28T01:58:12.642Z,94059.59
2022-09-28T02:00:44.755Z,94048.53
2022-09-28T02:03:17.532Z,94047.06
2022-09-28T02:06:00.039Z,94048.47
2022-09-28T02:08:34.219Z,94046.84
2022-09-28T02:11:05.640Z,94053.03
2022-09-28T02:13:37.485Z,94053.38
2022-09-28T02:16:16.369Z,94057.41
2022-09-28T02:18:45.719Z,94051.25
2022-09-28T02:21:31.408Z,94052.59
2022-09-28T02:24:05.217Z,94047.00
2022-09-28T02:26:37.850Z,94045.47
2022-09-28T02:29:05.169Z,94040.63
2022-09-28T02:31:32.333Z,94047.81
2022-09-28T02:33:59.710Z,94032.25
2022-09-28T02:36:28.575Z,94045.59
2022-09-28T02:38:58.275Z,94046.75
2022-09-28T02:42:05.622Z,94042.22
2022-09-28T02:45:00.119Z,94039.50
2022-09-28T02:48:01.366Z,94040.69
2022-09-28T02:50:58.178Z,94035.34
2022-09-28T02:53:59.109Z,94036.63
2022-09-28T02:56:54.403Z,94044.03
2022-09-28T02:59:33.532Z,94044.75
2022-09-28T03:02:21.979Z,94044.75
2022-09-28T03:05:02.653Z,94035.50
2022-09-28T03:07:59.229Z,94044.16
2022-09-28T03:10:41.952Z,94033.66
2022-09-28T03:13:09.744Z,94032.41
2022-09-28T03:15:37.889Z,94042.38
2022-09-28T03:18:05.016Z,94046.28
2022-09-28T03:20:33.373Z,94050.34
2022-09-28T03:23:23.235Z,94051.13
2022-09-28T03:25:48.314Z,94046.44
2022-09-28T03:28:15.510Z,94056.53
2022-09-28T03:30:43.338Z,94059.84
2022-09-28T03:33:10.687Z,94050.53
2022-09-28T03:35:38.801Z,94055.16
2022-09-28T03:38:05.903Z,94050.28
2022-09-28T03:40:37.490Z,94039.53
2022-09-28T03:43:04.756Z,94048.09
2022-09-28T03:45:31.985Z,94048.66
2022-09-28T03:48:00.145Z,94043.31
2022-09-28T03:50:27.430Z,94046.16
2022-09-28T03:52:54.513Z,94046.69
2022-09-28T03:55:21.647Z,94042.25
2022-09-28T03:57:55.941Z,94035.22
2022-09-28T04:00:23.819Z,94044.22
2022-09-28T04:02:51.028Z,94043.47
2022-09-28T04:05:18.086Z,94035.63
2022-09-28T04:07:45.143Z,94043.66
2022-09-28T04:10:12.264Z,94039.06
2022-09-28T04:12:39.840Z,94032.84
2022-09-28T04:15:07.469Z,94041.97
2022-09-28T04:17:39.224Z,94049.81
2022-09-28T04:20:09.889Z,94049.06
2022-09-28T04:22:40.262Z,94054.63
2022-09-28T04:25:07.890Z,94051.78
2022-09-28T04:27:53.518Z,94062.47
2022-09-28T04:30:21.797Z,94059.09
2022-09-28T04:32:49.288Z,94053.44
2022-09-28T04:35:17.294Z,94054.13
2022-09-28T04:37:44.380Z,94061.69
2022-09-28T04:40:11.763Z,94060.09
2022-09-28T04:42:38.827Z,94070.91
2022-09-28T04:45:06.597Z,94062.53
2022-09-28T04:47:37.917Z,94068.00
2022-09-28T04:50:27.902Z,94071.59
2022-09-28T04:53:14.120Z,94067.81
2022-09-28T04:55:41.210Z,94071.66
2022-09-28T04:58:08.233Z,94069.78
2022-09-28T05:00:35.890Z,94071.38
2022-09-28T05:03:12.381Z,94073.75
2022-09-28T05:05:59.731Z,94069.94
2022-09-28T05:08:38.581Z,94078.59
2022-09-28T05:11:08.123Z,94080.03
2022-09-28T05:13:41.569Z,94085.50
2022-09-28T05:16:09.990Z,94093.22
2022-09-28T05:18:57.285Z,94096.13
2022-09-28T05:21:26.394Z,94095.00
2022-09-28T05:23:56.052Z,94088.00
2022-09-28T05:26:24.155Z,94087.16
2022-09-28T05:28:51.262Z,94091.56
2022-09-28T05:31:21.034Z,94091.44
2022-09-28T05:34:03.509Z,94087.06
2022-09-28T05:36:32.401Z,94092.19
2022-09-28T05:38:59.520Z,94093.38
2022-09-28T05:41:26.691Z,94090.13
2022-09-28T05:43:54.938Z,94091.44
2022-09-28T05:46:23.715Z,94085.59
2022-09-28T05:48:52.552Z,94087.66
2022-09-28T05:51:19.956Z,94088.59
2022-09-28T05:53:47.672Z,94094.34
2022-09-28T05:56:16.244Z,94091.47
2022-09-28T05:58:44.978Z,94095.81
2022-09-28T06:01:13.021Z,94093.53
2022-09-28T06:03:40.287Z,94088.19
2022-09-28T06:06:07.576Z,94091.47
2022-09-28T06:08:34.788Z,94090.94
2022-09-28T06:11:26.936Z,94081.38
2022-09-28T06:13:56.897Z,94099.91
2022-09-28T06:16:27.088Z,94101.31
2022-09-28T06:18:54.356Z,94092.00
2022-09-28T06:21:33.737Z,94085.50
2022-09-28T06:24:01.183Z,94102.06
2022-09-28T06:26:28.365Z,94092.53
2022-09-28T06:28:55.494Z,94095.00
2022-09-28T06:31:23.937Z,94097.28
2022-09-28T06:33:52.201Z,94095.81
2022-09-28T06:36:20.763Z,94103.69
2022-09-28T06:38:49.843Z,94101.22
2022-09-28T06:41:18.349Z,94109.47
2022-09-28T06:43:48.758Z,94097.81
2022-09-28T06:46:36.345Z,94119.19
2022-09-28T06:49:23.810Z,94111.97
2022-09-28T06:52:08.784Z,94121.81
2022-09-28T06:54:54.299Z,94123.16
2022-09-28T06:57:23.780Z,94118.25
2022-09-28T06:59:50.867Z,94130.97
2022-09-28T07:02:18.057Z,94123.72
2022-09-28T07:05:13.656Z,94128.56
2022-09-28T07:08:01.903Z,94130.75
2022-09-28T07:10:56.288Z,94136.72
2022-09-28T07:13:50.374Z,94136.22
2022-09-28T07:16:25.725Z,94146.25
2022-09-28T07:18:54.503Z,94142.16
2022-09-28T07:21:29.260Z,94152.72
2022-09-28T07:23:59.965Z,94149.94
2022-09-28T07:26:45.606Z,94157.06
2022-09-28T07:29:32.933Z,94153.63
2022-09-28T07:32:21.727Z,94164.03
2022-09-28T07:35:09.198Z,94174.72
2022-09-28T07:38:03.356Z,94171.13
2022-09-28T07:40:51.494Z,94175.41
2022-09-28T07:43:20.650Z,94167.03
2022-09-28T07:45:52.727Z,94172.09
2022-09-28T07:48:20.981Z,94183.19
2022-09-28T07:51:10.387Z,94180.94
2022-09-28T07:53:45.784Z,94182.59
2022-09-28T07:56:35.669Z,94187.28
2022-09-28T07:59:09.600Z,94196.03
2022-09-28T08:01:39.594Z,94197.47
2022-09-28T08:04:08.929Z,94205.38
2022-09-28T08:06:37.049Z,94207.34
2022-09-28T08:09:05.960Z,94205.19
2022-09-28T08:11:59.516Z,94204.94
2022-09-28T08:14:35.789Z,94206.84
2022-09-28T08:17:16.376Z,94220.63
2022-09-28T08:20:10.949Z,94204.34
2022-09-28T08:22:38.614Z,94213.50
2022-09-28T08:25:06.213Z,94202.31
2022-09-28T08:27:33.812Z,94210.34
2022-09-28T08:30:01.734Z,94208.19
2022-09-28T08:32:49.325Z,94211.88
2022-09-28T08:35:34.642Z,94211.19
2022-09-28T08:38:17.617Z,94211.69
2022-09-28T08:41:12.066Z,94224.59
2022-09-28T08:44:09.520Z,94222.50
2022-09-28T08:47:32.354Z,94223.22
2022-09-28T08:50:24.203Z,94231.56
2022-09-28T08:53:55.963Z,94217.34
2022-09-28T08:56:35.824Z,94240.41
2022-09-28T08:59:09.366Z,94238.97
2022-09-28T09:01:48.682Z,94240.94
2022-09-28T09:04:17.728Z,94243.56
2022-09-28T09:07:53.817Z,94244.28
2022-09-28T09:10:46.155Z,94253.56
2022-09-28T09:13:40.830Z,94254.97
2022-09-28T09:16:33.797Z,94253.28
2022-09-28T09:19:26.736Z,94262.97
2022-09-28T09:22:32.327Z,94255.56
2022-09-28T09:25:24.847Z,94259.97
2022-09-28T09:28:28.637Z,94268.41
2022-09-28T09:31:08.841Z,94267.69
2022-09-28T09:34:13.586Z,94269.34
2022-09-28T09:37:23.300Z,94265.34
2022-09-28T09:40:53.238Z,94265.28
2022-09-28T09:43:58.975Z,94268.81
2022-09-28T09:46:52.131Z,94268.25
2022-09-28T09:49:39.143Z,94273.63
2022-09-28T09:52:17.329Z,94256.66
2022-09-28T09:55:08.163Z,94269.69
2022-09-28T09:58:02.285Z,94270.69
2022-09-28T10:00:45.206Z,94273.16
2022-09-28T10:03:27.913Z,94267.97
2022-09-28T10:06:07.543Z,94272.00
2022-09-28T10:08:40.752Z,94282.81
2022-09-28T10:11:19.403Z,94277.00
2022-09-28T10:13:51.880Z,94280.28
2022-09-28T10:16:39.350Z,94282.97
2022-09-28T10:19:13.496Z,94279.75
2022-09-28T10:22:03.057Z,94282.34
2022-09-28T10:24:39.386Z,94266.34
2022-09-28T10:27:13.484Z,94283.50
2022-09-28T10:29:49.651Z,94286.16
2022-09-28T10:32:23.815Z,94284.72
2022-09-28T10:35:11.008Z,94288.97
2022-09-28T10:38:03.222Z,94284.91
2022-09-28T10:40:56.182Z,94290.56
2022-09-28T10:43:36.575Z,94292.25
2022-09-28T10:46:13.811Z,94286.72
2022-09-28T10:48:54.766Z,94294.25
2022-09-28T10:51:50.239Z,94296.63
2022-09-28T10:54:28.344Z,94290.44
2022-09-28T10:56:58.246Z,94288.34
2022-09-28T10:59:39.793Z,94288.22
2022-09-28T11:02:36.617Z,94289.41
2022-09-28T11:05:21.112Z,94293.03
2022-09-28T11:07:48.862Z,94293.19
2022-09-28T11:10:26.082Z,94290.44
2022-09-28T11:12:57.381Z,94294.16
2022-09-28T11:15:29.670Z,94296.63
2022-09-28T11:18:29.418Z,94295.78
2022-09-28T11:21:27.131Z,94294.88
2022-09-28T11:24:19.843Z,94293.19
2022-09-28T11:26:52.511Z,94291.66
2022-09-28T11:29:45.338Z,94289.00
2022-09-28T11:32:26.362Z,94290.78
2022-09-28T11:35:23.338Z,94279.22
2022-09-28T11:38:14.963Z,94289.22
2022-09-28T11:41:03.701Z,94284.63
2022-09-28T11:43:45.931Z,94279.09
2022-09-28T11:46:31.270Z,94281.38
2022-09-28T11:49:43.669Z,94276.41
2022-09-28T11:52:30.992Z,94276.47
2022-09-28T11:55:06.917Z,94271.31
2022-09-28T11:57:38.465Z,94272.66
2022-09-28T12:00:12.828Z,94275.22
2022-09-28T12:03:16.254Z,94282.84
2022-09-28T12:05:55.524Z,94281.69
2022-09-28T12:08:28.082Z,94277.69
2022-09-28T12:11:05.400Z,94285.13
2022-09-28T12:13:57.429Z,94279.53
2022-09-28T12:17:07.155Z,94274.53
2022-09-28T12:20:03.590Z,94273.19
2022-09-28T12:22:40.442Z,94274.16
2022-09-28T12:25:14.937Z,94271.25
2022-09-28T12:27:48.568Z,94272.66
2022-09-28T12:30:19.790Z,94261.53
2022-09-28T12:32:49.013Z,94268.56
2022-09-28T12:35:24.337Z,94264.53
2022-09-28T12:37:54.830Z,94264.41
2022-09-28T12:40:37.230Z,94268.59
2022-09-28T12:43:20.042Z,94273.31
2022-09-28T12:46:20.775Z,94267.63
2022-09-28T12:50:13.803Z,94270.34
2022-09-28T12:55:19.512Z,94276.66
2022-09-28T12:57:54.925Z,94274.09
2022-09-28T13:00:25.195Z,94274.75
2022-09-28T13:03:01.079Z,94274.03
2022-09-28T13:05:28.220Z,94275.81
2022-09-28T13:08:17.459Z,94270.88
2022-09-28T13:10:50.205Z,94275.63
2022-09-28T13:13:23.312Z,94272.06
2022-09-28T13:16:10.641Z,94273.03
2022-09-28T13:18:56.921Z,94277.47
2022-09-28T13:21:43.812Z,94279.16
2022-09-28T13:24:31.481Z,94274.59
2022-09-28T13:27:05.756Z,94274.28
2022-09-28T13:29:34.842Z,94284.50
2022-09-28T13:32:03.377Z,94272.94
2022-09-28T13:34:35.940Z,94269.16
2022-09-28T13:37:09.752Z,94280.25
2022-09-28T13:39:48.714Z,94273.41
2022-09-28T13:42:52.687Z,94277.56
2022-09-28T13:45:22.688Z,94272.72
2022-09-28T13:48:13.477Z,94277.59
2022-09-28T13:50:46.662Z,94274.75
2022-09-28T13:53:53.011Z,94275.81
2022-09-28T13:56:40.994Z,94276.06
2022-09-28T13:59:27.692Z,94273.72
2022-09-28T14:02:09.987Z,94274.84
2022-09-28T14:05:00.357Z,94271.56
2022-09-28T14:07:33.500Z,94275.09
2022-09-28T14:10:42.324Z,94267.94
2022-09-28T14:13:12.672Z,94274.50
2022-09-28T14:15:43.769Z,94269.91
2022-09-28T14:18:33.062Z,94276.25
2022-09-28T14:21:27.584Z,94258.94
2022-09-28T14:24:12.113Z,94264.66
2022-09-28T14:26:58.350Z,94270.28
2022-09-28T14:29:31.652Z,94269.75
2022-09-28T14:32:09.737Z,94269.63
2022-09-28T14:34:43.079Z,94268.56
2022-09-28T14:37:40.830Z,94267.94
2022-09-28T14:40:39.928Z,94263.56
2022-09-28T14:43:25.105Z,94265.53
2022-09-28T14:46:19.980Z,94263.00
2022-09-28T14:48:51.007Z,94269.13
2022-09-28T14:51:27.147Z,94267.66
2022-09-28T14:54:00.257Z,94264.28
2022-09-28T14:56:32.727Z,94274.34
2022-09-28T14:59:00.781Z,94270.47
2022-09-28T15:01:28.021Z,94268.22
2022-09-28T15:03:59.047Z,94264.75
2022-09-28T15:06:27.607Z,94268.69
2022-09-28T15:08:54.719Z,94272.22
2022-09-28T15:11:24.716Z,94267.53
2022-09-28T15:14:06.219Z,94264.81
2022-09-28T15:16:33.506Z,94267.88
2022-09-28T15:19:23.823Z,94271.63
2022-09-28T15:21:51.327Z,94270.88
2022-09-28T15:24:33.026Z,94273.84
2022-09-28T15:27:01.963Z,94274.19
2022-09-28T15:29:33.296Z,94269.91
2022-09-28T15:32:00.642Z,94282.47
2022-09-28T15:34:52.902Z,94272.19
2022-09-28T15:37:28.713Z,94276.38
2022-09-28T15:39:57.863Z,94273.00
2022-09-28T15:42:25.596Z,94276.88
2022-09-28T15:45:22.122Z,94274.91
2022-09-28T15:47:49.779Z,94283.53
2022-09-28T15:50:28.998Z,94280.63
2022-09-28T15:52:57.981Z,94280.25
2022-09-28T15:55:30.438Z,94287.97
2022-09-28T15:58:15.678Z,94290.44
2022-09-28T16:00:45.082Z,94297.38
2022-09-28T16:03:11.972Z,94289.97
2022-09-28T16:05:46.161Z,94292.47
2022-09-28T16:08:25.948Z,94291.19
2022-09-28T16:11:06.088Z,94299.88
2022-09-28T16:13:34.156Z,94292.53
2022-09-28T16:16:01.298Z,94299.56
2022-09-28T16:18:30.585Z,94300.97
2022-09-28T16:21:24.267Z,94294.31
2022-09-28T16:23:55.566Z,94305.59
2022-09-28T16:26:33.329Z,94301.94
2022-09-28T16:29:05.771Z,94301.28
2022-09-28T16:31:36.723Z,94305.56
2022-09-28T16:34:09.556Z,94306.69
2022-09-28T16:36:47.225Z,94311.75
2022-09-28T16:39:18.589Z,94309.13
2022-09-28T16:42:02.772Z,94316.75
2022-09-28T16:44:31.764Z,94319.66
2022-09-28T16:47:00.754Z,94323.53
2022-09-28T16:49:31.523Z,94319.13
2022-09-28T16:51:59.457Z,94308.13
2022-09-28T16:54:45.263Z,94325.44
2022-09-28T16:57:14.971Z,94325.75
2022-09-28T16:59:42.036Z,94334.09
2022-09-28T17:02:42.358Z,94328.13
2022-09-28T17:05:06.878Z,94325.47
2022-09-28T17:07:34.294Z,94330.78
2022-09-28T17:10:01.564Z,94342.06
2022-09-28T17:12:28.843Z,94336.97
2022-09-28T17:14:55.993Z,94340.66
2022-09-28T17:17:23.147Z,94346.38
2022-09-28T17:19:50.236Z,94344.28
2022-09-28T17:22:18.277Z,94338.56
2022-09-28T17:24:46.091Z,94343.03
2022-09-28T17:27:19.112Z,94346.41
2022-09-28T17:29:46.220Z,94346.72
2022-09-28T17:32:18.773Z,94356.19
2022-09-28T17:34:55.865Z,94358.56
2022-09-28T17:37:28.502Z,94361.16
2022-09-28T17:39:55.602Z,94355.88
2022-09-28T17:42:22.894Z,94362.69
2022-09-28T17:44:49.973Z,94364.38
2022-09-28T17:47:17.419Z,94357.28
2022-09-28T17:49:46.114Z,94365.53
2022-09-28T17:52:13.688Z,94357.38
2022-09-28T17:54:41.175Z,94363.13
2022-09-28T17:57:09.943Z,94362.16
2022-09-28T17:59:36.977Z,94346.63
2022-09-28T18:02:04.119Z,94358.09
2022-09-28T18:04:50.767Z,94361.97
2022-09-28T18:07:18.365Z,94369.00
2022-09-28T18:09:45.696Z,94364.38
2022-09-28T18:12:13.002Z,94361.00
2022-09-28T18:14:40.097Z,94372.00
2022-09-28T18:17:07.209Z,94361.16
2022-09-28T18:19:34.274Z,94371.81
2022-09-28T18:22:01.720Z,94372.50
2022-09-28T18:24:29.299Z,94379.53
2022-09-28T18:26:56.371Z,94377.56
2022-09-28T18:29:23.564Z,94384.03
2022-09-28T18:31:50.738Z,94378.53
2022-09-28T18:34:18.019Z,94389.34
2022-09-28T18:36:45.436Z,94387.09
2022-09-28T18:39:12.715Z,94387.94
2022-09-28T18:41:39.900Z,94388.97
2022-09-28T18:44:07.047Z,94394.47
2022-09-28T18:46:36.607Z,94396.72
2022-09-28T18:49:04.632Z,94408.03
2022-09-28T18:51:31.734Z,94409.41
2022-09-28T18:54:00.783Z,94409.38
2022-09-28T18:56:27.847Z,94405.00
2022-09-28T18:58:54.912Z,94412.03
2022-09-28T19:01:30.807Z,94408.66
2022-09-28T19:04:05.920Z,94410.09
2022-09-28T19:06:34.547Z,94419.50
2022-09-28T19:09:01.745Z,94416.75
2022-09-28T19:11:28.898Z,94416.59
2022-09-28T19:13:56.243Z,94414.28
2022-09-28T19:16:25.849Z,94422.00
2022-09-28T19:18:53.467Z,94421.06
2022-09-28T19:21:21.020Z,94422.25
2022-09-28T19:23:49.706Z,94420.56
2022-09-28T19:26:24.126Z,94431.19
2022-09-28T19:28:51.691Z,94424.66
2022-09-28T19:31:19.266Z,94427.03
2022-09-28T19:33:46.748Z,94424.13
2022-09-28T19:36:18.384Z,94428.25
2022-09-28T19:38:46.247Z,94429.25
2022-09-28T19:41:44.837Z,94424.97
2022-09-28T19:44:19.277Z,94426.38
2022-09-28T19:46:46.750Z,94421.97
2022-09-28T19:49:19.297Z,94424.47
2022-09-28T19:52:12.024Z,94428.19
2022-09-28T19:54:37.381Z,94426.44
2022-09-28T19:57:07.606Z,94426.91
2022-09-28T19:59:36.782Z,94425.25
2022-09-28T20:02:05.917Z,94426.28
2022-09-28T20:04:33.120Z,94432.72
2022-09-28T20:07:00.261Z,94430.47
2022-09-28T20:09:27.376Z,94439.56
2022-09-28T20:11:54.861Z,94433.53
2022-09-28T20:14:24.463Z,94433.66
2022-09-28T20:16:53.583Z,94438.47
2022-09-28T20:19:21.808Z,94441.88
2022-09-28T20:21:49.546Z,94433.78
2022-09-28T20:24:17.109Z,94433.13
2022-09-28T20:26:45.714Z,94428.44
2022-09-28T20:29:13.049Z,94436.25
2022-09-28T20:31:40.453Z,94428.97
2022-09-28T20:34:07.619Z,94423.75
2022-09-28T20:36:34.719Z,94425.22
2022-09-28T20:39:02.691Z,94422.44
2022-09-28T20:41:36.504Z,94430.75
2022-09-28T20:44:06.396Z,94427.34
2022-09-28T20:46:37.929Z,94428.00
2022-09-28T20:49:05.322Z,94422.03
2022-09-28T20:51:32.523Z,94416.47
2022-09-28T20:54:00.358Z,94419.97
2022-09-28T20:56:30.470Z,94427.16
2022-09-28T20:58:57.710Z,94415.09
2022-09-28T21:01:27.303Z,94429.59
2022-09-28T21:03:59.202Z,94422.88
2022-09-28T21:06:29.920Z,94429.06
2022-09-28T21:08:57.579Z,94424.75
2022-09-28T21:11:26.795Z,94427.34
2022-09-28T21:13:55.957Z,94421.63
2022-09-28T21:16:23.032Z,94418.44
2022-09-28T21:18:50.182Z,94422.78
2022-09-28T21:21:19.150Z,94424.22
2022-09-28T21:23:47.071Z,94419.16
2022-09-28T21:26:18.828Z,94416.84
2022-09-28T21:28:46.572Z,94422.22
2022-09-28T21:31:14.493Z,94426.22
2022-09-28T21:33:41.686Z,94430.03
2022-09-28T21:36:09.849Z,94425.03
2022-09-28T21:38:36.969Z,94427.38
2022-09-28T21:41:04.214Z,94425.09
2022-09-28T21:43:32.400Z,94431.56
2022-09-28T21:45:59.710Z,94423.84
2022-09-28T21:48:28.494Z,94420.38
2022-09-28T21:50:57.681Z,94424.22
2022-09-28T21:53:26.259Z,94420.38
2022-09-28T21:55:53.902Z,94420.13
2022-09-28T21:58:24.613Z,94425.13
2022-09-28T22:00:53.690Z,94429.09
2022-09-28T22:03:24.487Z,94431.19
2022-09-28T22:05:52.319Z,94424.44
2022-09-28T22:08:20.667Z,94426.91
2022-09-28T22:11:06.804Z,94431.88
2022-09-28T22:13:44.153Z,94433.97
2022-09-28T22:16:13.135Z,94430.53
2022-09-28T22:18:40.752Z,94437.16
2022-09-28T22:21:15.161Z,94440.00
2022-09-28T22:23:42.367Z,94434.16
2022-09-28T22:26:17.654Z,94431.81
2022-09-28T22:28:50.050Z,94435.47
2022-09-28T22:31:19.233Z,94435.13
2022-09-28T22:33:46.616Z,94433.53
2022-09-28T22:36:16.809Z,94433.84
2022-09-28T22:38:44.781Z,94438.16
2022-09-28T22:41:15.792Z,94434.91
2022-09-28T22:43:43.707Z,94435.78
2022-09-28T22:46:13.153Z,94434.22
2022-09-28T22:48:42.189Z,94436.25
2022-09-28T22:51:09.763Z,94436.75
2022-09-28T22:53:36.919Z,94428.16
2022-09-28T22:56:05.493Z,94432.03
2022-09-28T22:58:34.066Z,94436.19
2022-09-28T23:01:10.238Z,94434.63
2022-09-28T23:03:39.955Z,94434.13
2022-09-28T23:06:07.977Z,94439.91
2022-09-28T23:08:35.677Z,94436.78
2022-09-28T23:11:02.884Z,94431.34
2022-09-28T23:13:31.054Z,94419.75
2022-09-28T23:16:00.017Z,94428.31
2022-09-28T23:18:30.034Z,94426.72
2022-09-28T23:21:03.004Z,94430.41
2022-09-28T23:23:30.198Z,94436.19
2022-09-28T23:25:57.253Z,94433.44
2022-09-28T23:28:26.403Z,94430.03
2022-09-28T23:30:53.629Z,94427.66
2022-09-28T23:33:22.276Z,94437.00
2022-09-28T23:35:49.755Z,94433.19
2022-09-28T23:38:18.166Z,94436.38
2022-09-28T23:40:48.390Z,94430.97
2022-09-28T23:43:15.541Z,94428.56
2022-09-28T23:45:43.961Z,94427.78
2022-09-28T23:48:12.735Z,94423.97
2022-09-28T23:50:39.736Z,94432.94
2022-09-28T23:53:06.859Z,94432.94
2022-09-28T23:55:33.898Z,94435.75
2022-09-28T23:58:01.125Z,94431.66
